createdAt,value
2019-02-28T00:00:24.309Z,0.00
2019-02-28T00:01:24.300Z,0.00
2019-02-28T00:02:24.283Z,0.00
2019-02-28T00:03:26.233Z,0.00
2019-02-28T00:04:24.262Z,0.00
2019-02-28T00:05:24.254Z,0.00
2019-02-28T00:06:24.245Z,0.00
2019-02-28T00:07:24.233Z,0.00
2019-02-28T00:08:24.222Z,0.00
2019-02-28T00:09:25.739Z,0.00
2019-02-28T00:10:24.264Z,0.00
2019-02-28T00:11:24.178Z,0.00
2019-02-28T00:12:24.164Z,0.00
2019-02-28T00:13:24.164Z,0.00
2019-02-28T00:14:24.153Z,0.00
2019-02-28T00:15:24.192Z,0.00
2019-02-28T00:16:24.123Z,0.00
2019-02-28T00:17:24.112Z,0.00
2019-02-28T00:18:24.100Z,0.00
2019-02-28T00:19:24.602Z,0.00
2019-02-28T00:20:24.086Z,0.00
2019-02-28T00:21:24.106Z,0.00
2019-02-28T00:22:24.069Z,0.00
2019-02-28T00:23:24.104Z,0.00
2019-02-28T00:24:24.034Z,0.00
2019-02-28T00:25:24.055Z,0.00
2019-02-28T00:26:24.012Z,0.00
2019-02-28T00:27:24.010Z,0.00
2019-02-28T00:28:25.789Z,0.00
2019-02-28T00:29:23.984Z,0.00
2019-02-28T00:30:24.061Z,0.00
2019-02-28T00:31:23.964Z,0.00
2019-02-28T00:32:24.755Z,0.00
2019-02-28T00:33:23.935Z,0.00
2019-02-28T00:34:23.923Z,0.00
2019-02-28T00:35:24.028Z,0.00
2019-02-28T00:36:23.908Z,0.00
2019-02-28T00:37:24.679Z,0.00
2019-02-28T00:38:23.939Z,0.00
2019-02-28T00:39:23.883Z,0.00
2019-02-28T00:40:23.938Z,0.00
2019-02-28T00:41:23.856Z,0.00
2019-02-28T00:42:26.208Z,0.00
2019-02-28T00:43:25.146Z,0.00
2019-02-28T00:44:23.864Z,0.00
2019-02-28T00:45:23.823Z,0.00
2019-02-28T00:46:23.804Z,0.00
2019-02-28T00:47:23.872Z,0.00
2019-02-28T00:48:23.767Z,0.00
2019-02-28T00:49:24.476Z,0.00
2019-02-28T00:50:23.752Z,0.00
2019-02-28T00:51:23.740Z,0.00
2019-02-28T00:52:23.870Z,0.00
2019-02-28T00:53:23.724Z,0.00
2019-02-28T00:54:23.707Z,0.00
2019-02-28T00:55:23.747Z,0.00
2019-02-28T00:56:23.684Z,0.00
2019-02-28T00:57:24.622Z,0.00
2019-02-28T00:58:28.589Z,0.00
2019-02-28T00:59:23.644Z,0.00
2019-02-28T01:00:23.641Z,0.00
2019-02-28T01:01:23.635Z,0.00
2019-02-28T01:02:23.702Z,0.00
2019-02-28T01:03:26.482Z,0.00
2019-02-28T01:04:23.588Z,0.00
2019-02-28T01:05:23.592Z,0.00
2019-02-28T01:06:23.578Z,0.00
2019-02-28T01:07:23.585Z,0.00
2019-02-28T01:08:23.542Z,0.00
2019-02-28T01:09:23.544Z,0.00
2019-02-28T01:10:23.526Z,0.00
2019-02-28T01:11:23.512Z,0.00
2019-02-28T01:12:23.506Z,0.00
2019-02-28T01:13:27.326Z,0.00
2019-02-28T01:14:23.482Z,0.00
2019-02-28T01:15:23.463Z,0.00
2019-02-28T01:16:23.517Z,0.00
2019-02-28T01:17:24.005Z,0.00
2019-02-28T01:18:23.443Z,0.00
2019-02-28T01:19:23.427Z,0.00
2019-02-28T01:20:23.426Z,0.00
2019-02-28T01:21:24.023Z,0.00
2019-02-28T01:22:26.828Z,0.00
2019-02-28T01:23:23.411Z,0.00
2019-02-28T01:24:23.377Z,0.00
2019-02-28T01:25:23.350Z,0.00
2019-02-28T01:26:23.453Z,0.00
2019-02-28T01:27:23.373Z,0.00
2019-02-28T01:28:26.753Z,0.00
2019-02-28T01:29:23.315Z,0.00
2019-02-28T01:30:23.335Z,0.00
2019-02-28T01:31:23.290Z,0.00
2019-02-28T01:32:23.291Z,0.00
2019-02-28T01:33:25.010Z,0.00
2019-02-28T01:34:23.354Z,0.00
2019-02-28T01:35:23.249Z,0.00
2019-02-28T01:36:23.241Z,0.00
2019-02-28T01:37:23.352Z,0.00
2019-02-28T01:38:24.231Z,0.00
2019-02-28T01:39:23.209Z,0.00
2019-02-28T01:40:23.210Z,0.00
2019-02-28T01:41:23.179Z,0.00
2019-02-28T01:42:23.175Z,0.00
2019-02-28T01:43:28.379Z,0.00
2019-02-28T01:44:23.152Z,0.00
2019-02-28T01:45:23.196Z,0.00
2019-02-28T01:46:23.124Z,0.00
2019-02-28T01:47:23.110Z,0.00
2019-02-28T01:48:23.737Z,0.00
2019-02-28T01:49:26.035Z,0.00
2019-02-28T01:50:23.168Z,0.00
2019-02-28T01:51:23.101Z,0.00
2019-02-28T01:52:23.079Z,0.00
2019-02-28T01:53:23.044Z,0.00
2019-02-28T01:54:27.277Z,0.00
2019-02-28T01:55:23.024Z,0.00
2019-02-28T01:56:23.037Z,0.00
2019-02-28T01:57:23.016Z,0.00
2019-02-28T01:58:23.003Z,0.00
2019-02-28T01:59:22.980Z,0.00
2019-02-28T02:00:23.774Z,0.00
2019-02-28T02:01:22.962Z,0.00
2019-02-28T02:02:23.021Z,0.00
2019-02-28T02:03:22.933Z,0.00
2019-02-28T02:04:22.932Z,0.00
2019-02-28T02:05:22.925Z,0.00
2019-02-28T02:06:25.749Z,0.00
2019-02-28T02:07:22.889Z,0.00
2019-02-28T02:08:22.932Z,0.00
2019-02-28T02:09:22.873Z,0.00
2019-02-28T02:10:22.880Z,0.00
2019-02-28T02:11:22.855Z,0.00
2019-02-28T02:12:22.847Z,0.00
2019-02-28T02:13:22.833Z,0.00
2019-02-28T02:14:22.817Z,0.00
2019-02-28T02:15:22.806Z,0.00
2019-02-28T02:16:26.661Z,0.00
2019-02-28T02:17:22.928Z,0.00
2019-02-28T02:18:22.771Z,0.00
2019-02-28T02:19:22.757Z,0.00
2019-02-28T02:20:23.474Z,0.00
2019-02-28T02:21:22.744Z,0.00
2019-02-28T02:22:22.725Z,0.00
2019-02-28T02:23:22.737Z,0.00
2019-02-28T02:24:27.426Z,0.00
2019-02-28T02:25:22.708Z,0.00
2019-02-28T02:26:22.684Z,0.00
2019-02-28T02:27:22.744Z,0.00
2019-02-28T02:28:26.907Z,0.00
2019-02-28T02:29:22.669Z,0.00
2019-02-28T02:30:22.653Z,0.00
2019-02-28T02:31:27.618Z,0.00
2019-02-28T02:32:47.877Z,0.00
2019-02-28T02:33:52.369Z,0.00
2019-02-28T02:34:47.831Z,0.00
2019-02-28T02:35:47.828Z,0.00
2019-02-28T02:36:53.135Z,0.00
2019-02-28T02:38:12.633Z,0.00
2019-02-28T02:39:16.394Z,0.00
2019-02-28T02:40:12.638Z,0.00
2019-02-28T02:41:12.603Z,0.00
2019-02-28T02:42:12.591Z,0.00
2019-02-28T02:43:12.599Z,0.00
2019-02-28T02:44:12.575Z,0.00
2019-02-28T02:45:12.561Z,0.00
2019-02-28T02:46:19.745Z,0.00
2019-02-28T02:47:37.672Z,0.00
2019-02-28T02:48:38.540Z,0.00
2019-02-28T02:49:37.647Z,0.00
2019-02-28T02:50:37.634Z,0.00
2019-02-28T02:51:37.625Z,0.00
2019-02-28T02:52:37.625Z,0.00
2019-02-28T02:53:42.195Z,0.00
2019-02-28T02:54:37.598Z,0.00
2019-02-28T02:55:37.580Z,0.00
2019-02-28T02:56:41.972Z,0.00
2019-02-28T02:57:37.574Z,0.00
2019-02-28T02:58:37.545Z,0.00
2019-02-28T02:59:39.286Z,0.00
2019-02-28T03:00:37.541Z,0.00
2019-02-28T03:01:37.523Z,0.00
2019-02-28T03:02:37.517Z,0.00
2019-02-28T03:03:42.814Z,0.00
2019-02-28T03:05:02.684Z,0.00
2019-02-28T03:06:02.675Z,0.00
2019-02-28T03:07:02.645Z,0.00
2019-02-28T03:08:02.642Z,0.00
2019-02-28T03:09:02.627Z,0.00
2019-02-28T03:10:02.630Z,0.00
2019-02-28T03:11:02.668Z,0.00
2019-02-28T03:12:02.670Z,0.00
2019-02-28T03:13:04.813Z,0.00
2019-02-28T03:14:02.573Z,0.00
2019-02-28T03:15:02.559Z,0.00
2019-02-28T03:16:02.571Z,0.00
2019-02-28T03:17:09.695Z,0.00
2019-02-28T03:18:27.663Z,0.00
2019-02-28T03:19:33.179Z,0.00
2019-02-28T03:20:52.679Z,0.00
2019-02-28T03:21:53.053Z,0.00
2019-02-28T03:22:52.748Z,0.00
2019-02-28T03:23:52.650Z,0.00
2019-02-28T03:24:52.635Z,0.00
2019-02-28T03:25:52.616Z,0.00
2019-02-28T03:26:52.623Z,0.00
2019-02-28T03:27:56.361Z,0.00
2019-02-28T03:28:52.598Z,0.00
2019-02-28T03:29:52.578Z,0.00
2019-02-28T03:30:52.575Z,0.00
2019-02-28T03:31:56.755Z,0.00
2019-02-28T03:33:27.183Z,0.00
2019-02-28T03:34:54.992Z,0.00
2019-02-28T03:36:07.796Z,0.00
2019-02-28T03:37:07.655Z,0.00
2019-02-28T03:38:11.639Z,0.00
2019-02-28T03:39:07.629Z,0.00
2019-02-28T03:40:07.622Z,0.00
2019-02-28T03:41:07.610Z,0.00
2019-02-28T03:42:07.616Z,0.00
2019-02-28T03:43:07.702Z,0.00
2019-02-28T03:44:07.575Z,0.00
2019-02-28T03:45:07.648Z,0.00
2019-02-28T03:46:10.197Z,0.00
2019-02-28T03:47:07.549Z,0.00
2019-02-28T03:48:07.535Z,0.00
2019-02-28T03:49:11.460Z,0.00
2019-02-28T03:50:07.543Z,0.00
2019-02-28T03:51:07.506Z,0.00
2019-02-28T03:52:07.496Z,0.00
2019-02-28T03:53:07.477Z,0.00
2019-02-28T03:54:07.507Z,0.00
2019-02-28T03:55:07.460Z,0.00
2019-02-28T03:56:07.462Z,0.00
2019-02-28T03:57:07.455Z,0.00
2019-02-28T03:58:07.423Z,0.00
2019-02-28T03:59:07.410Z,0.00
2019-02-28T04:00:07.398Z,0.00
2019-02-28T04:01:09.443Z,0.00
2019-02-28T04:02:07.375Z,0.00
2019-02-28T04:03:07.428Z,0.00
2019-02-28T04:04:12.235Z,0.00
2019-02-28T04:05:07.409Z,0.00
2019-02-28T04:06:07.350Z,0.00
2019-02-28T04:07:07.341Z,0.00
2019-02-28T04:08:07.315Z,0.00
2019-02-28T04:09:08.394Z,0.00
2019-02-28T04:10:07.290Z,0.00
2019-02-28T04:11:07.291Z,0.00
2019-02-28T04:12:08.819Z,0.00
2019-02-28T04:13:07.259Z,0.00
2019-02-28T04:14:07.314Z,0.00
2019-02-28T04:15:10.116Z,0.00
2019-02-28T04:16:09.469Z,0.00
2019-02-28T04:17:07.229Z,0.00
2019-02-28T04:18:08.474Z,0.00
2019-02-28T04:19:07.200Z,0.00
2019-02-28T04:20:07.190Z,0.00
2019-02-28T04:21:10.258Z,0.00
2019-02-28T04:22:07.165Z,0.00
2019-02-28T04:23:07.170Z,0.00
2019-02-28T04:24:12.436Z,0.00
2019-02-28T04:25:32.729Z,0.00
2019-02-28T04:26:32.712Z,0.00
2019-02-28T04:27:32.701Z,0.00
2019-02-28T04:28:32.698Z,0.00
2019-02-28T04:29:32.678Z,0.00
2019-02-28T04:30:32.664Z,0.00
2019-02-28T04:31:32.656Z,0.00
2019-02-28T04:32:32.636Z,0.00
2019-02-28T04:33:37.376Z,0.00
2019-02-28T04:34:57.794Z,0.00
2019-02-28T04:36:00.684Z,0.00
2019-02-28T04:36:57.774Z,0.00
2019-02-28T04:37:57.762Z,0.00
2019-02-28T04:38:57.762Z,0.00
2019-02-28T04:39:57.746Z,0.00
2019-02-28T04:40:58.793Z,0.00
2019-02-28T04:41:57.718Z,0.00
2019-02-28T04:42:57.706Z,0.00
2019-02-28T04:43:57.704Z,0.00
2019-02-28T04:44:57.687Z,0.00
2019-02-28T04:45:58.449Z,0.00
2019-02-28T04:46:57.664Z,0.00
2019-02-28T04:47:57.649Z,0.00
2019-02-28T04:48:57.651Z,0.00
2019-02-28T04:49:57.767Z,0.00
2019-02-28T04:50:57.621Z,0.00
2019-02-28T04:51:57.609Z,0.00
2019-02-28T04:52:57.609Z,0.00
2019-02-28T04:53:57.599Z,0.00
2019-02-28T04:54:59.417Z,0.00
2019-02-28T04:55:57.585Z,0.00
2019-02-28T04:56:57.622Z,0.00
2019-02-28T04:57:57.540Z,0.00
2019-02-28T04:58:59.551Z,0.00
2019-02-28T04:59:57.523Z,0.00
2019-02-28T05:00:57.541Z,0.00
2019-02-28T05:01:57.554Z,0.00
2019-02-28T05:02:57.487Z,0.00
2019-02-28T05:03:59.125Z,0.00
2019-02-28T05:04:57.459Z,0.00
2019-02-28T05:05:57.456Z,0.00
2019-02-28T05:06:57.448Z,0.00
2019-02-28T05:07:57.441Z,0.00
2019-02-28T05:08:57.427Z,0.00
2019-02-28T05:09:57.434Z,0.00
2019-02-28T05:10:57.405Z,0.00
2019-02-28T05:11:57.384Z,0.00
2019-02-28T05:12:57.485Z,0.00
2019-02-28T05:13:57.365Z,0.00
2019-02-28T05:14:58.145Z,0.00
2019-02-28T05:15:57.341Z,0.00
2019-02-28T05:16:57.393Z,0.00
2019-02-28T05:17:57.431Z,0.00
2019-02-28T05:18:58.213Z,0.00
2019-02-28T05:19:57.308Z,0.00
2019-02-28T05:20:57.293Z,0.00
2019-02-28T05:21:57.293Z,0.00
2019-02-28T05:22:59.293Z,0.00
2019-02-28T05:23:57.456Z,0.00
2019-02-28T05:24:57.259Z,0.00
2019-02-28T05:25:57.231Z,0.00
2019-02-28T05:27:00.074Z,0.00
2019-02-28T05:27:57.215Z,0.00
2019-02-28T05:28:57.214Z,0.00
2019-02-28T05:29:57.201Z,0.00
2019-02-28T05:30:57.237Z,0.00
2019-02-28T05:31:58.105Z,0.00
2019-02-28T05:34:23.740Z,0.00
2019-02-28T05:35:26.545Z,0.00
2019-02-28T05:36:22.727Z,0.00
2019-02-28T05:37:22.694Z,0.00
2019-02-28T05:38:22.715Z,0.00
2019-02-28T05:39:22.690Z,0.00
2019-02-28T05:40:22.690Z,0.00
2019-02-28T05:41:22.654Z,0.00
2019-02-28T05:42:23.323Z,0.00
2019-02-28T05:43:22.649Z,0.00
2019-02-28T05:44:22.653Z,0.00
2019-02-28T05:45:22.614Z,4.00
2019-02-28T05:46:23.770Z,4.00
2019-02-28T05:47:22.599Z,0.00
2019-02-28T05:48:22.575Z,4.00
2019-02-28T05:49:22.571Z,0.00
2019-02-28T05:50:22.573Z,4.00
2019-02-28T05:51:24.875Z,4.00
2019-02-28T05:52:22.565Z,4.00
2019-02-28T05:53:22.537Z,4.00
2019-02-28T05:54:22.509Z,8.00
2019-02-28T05:55:25.508Z,8.00
2019-02-28T05:56:22.496Z,12.00
2019-02-28T05:57:22.506Z,16.00
2019-02-28T05:58:22.557Z,20.00
2019-02-28T05:59:26.167Z,20.00
2019-02-28T06:00:22.461Z,24.00
2019-02-28T06:01:22.441Z,32.00
2019-02-28T06:02:23.345Z,36.00
2019-02-28T06:03:22.418Z,40.00
2019-02-28T06:04:22.413Z,52.00
2019-02-28T06:05:22.385Z,60.00
2019-02-28T06:06:22.381Z,68.00
2019-02-28T06:07:22.383Z,76.00
2019-02-28T06:08:22.368Z,92.00
2019-02-28T06:09:22.347Z,104.00
2019-02-28T06:10:24.735Z,120.00
2019-02-28T06:11:22.339Z,132.00
2019-02-28T06:12:22.338Z,152.00
2019-02-28T06:13:22.306Z,172.00
2019-02-28T06:14:26.649Z,192.00
2019-02-28T06:15:22.295Z,216.00
2019-02-28T06:16:22.269Z,240.00
2019-02-28T06:17:22.259Z,268.00
2019-02-28T06:18:22.258Z,292.00
2019-02-28T06:19:22.310Z,320.00
2019-02-28T06:20:22.238Z,352.00
2019-02-28T06:21:23.402Z,384.00
2019-02-28T06:22:22.212Z,416.00
2019-02-28T06:23:22.250Z,448.00
2019-02-28T06:24:22.185Z,484.00
2019-02-28T06:25:25.060Z,520.00
2019-02-28T06:26:22.165Z,560.00
2019-02-28T06:27:24.210Z,600.00
2019-02-28T06:28:22.137Z,640.00
2019-02-28T06:29:22.134Z,680.00
2019-02-28T06:30:35.489Z,724.00
2019-02-28T06:31:23.208Z,768.00
2019-02-28T06:32:23.740Z,812.00
2019-02-28T06:33:22.094Z,864.00
2019-02-28T06:34:22.080Z,908.00
2019-02-28T06:35:22.062Z,956.00
2019-02-28T06:36:22.082Z,1004.00
2019-02-28T06:37:23.966Z,1052.00
2019-02-28T06:38:22.121Z,1100.00
2019-02-28T06:39:22.100Z,1148.00
2019-02-28T06:40:22.006Z,1200.00
2019-02-28T06:41:22.082Z,1244.00
2019-02-28T06:42:21.993Z,1296.00
2019-02-28T06:43:21.975Z,1344.00
2019-02-28T06:44:24.191Z,1396.00
2019-02-28T06:45:21.958Z,1448.00
2019-02-28T06:46:21.939Z,1496.00
2019-02-28T06:47:21.953Z,1544.00
2019-02-28T06:48:25.925Z,1596.00
2019-02-28T06:49:21.937Z,1648.00
2019-02-28T06:50:21.900Z,1700.00
2019-02-28T06:51:21.884Z,1752.00
2019-02-28T06:52:22.261Z,1804.00
2019-02-28T06:53:21.881Z,1852.00
2019-02-28T06:54:21.852Z,1900.00
2019-02-28T06:55:21.838Z,1944.00
2019-02-28T06:56:22.504Z,1988.00
2019-02-28T06:57:21.820Z,2032.00
2019-02-28T06:58:21.810Z,2080.00
2019-02-28T06:59:21.807Z,2112.00
2019-02-28T07:00:23.663Z,2148.00
2019-02-28T07:01:22.740Z,2184.00
2019-02-28T07:02:22.758Z,2220.00
2019-02-28T07:03:21.909Z,2252.00
2019-02-28T07:04:21.756Z,2288.00
2019-02-28T07:05:25.721Z,2328.00
2019-02-28T07:06:21.842Z,2368.00
2019-02-28T07:07:21.720Z,2408.00
2019-02-28T07:08:24.721Z,2448.00
2019-02-28T07:09:21.685Z,2484.00
2019-02-28T07:10:21.787Z,2512.00
2019-02-28T07:11:21.667Z,2540.00
2019-02-28T07:12:21.671Z,2568.00
2019-02-28T07:13:21.656Z,2604.00
2019-02-28T07:14:21.633Z,2636.00
2019-02-28T07:15:24.816Z,2668.00
2019-02-28T07:16:21.623Z,2700.00
2019-02-28T07:17:21.616Z,2736.00
2019-02-28T07:18:21.597Z,2772.00
2019-02-28T07:19:21.675Z,2796.00
2019-02-28T07:20:21.706Z,2824.00
2019-02-28T07:21:21.565Z,2840.00
2019-02-28T07:22:21.550Z,2856.00
2019-02-28T07:23:22.298Z,2872.00
2019-02-28T07:24:21.534Z,2900.00
2019-02-28T07:25:21.526Z,2920.00
2019-02-28T07:26:21.530Z,2944.00
2019-02-28T07:27:23.408Z,2964.00
2019-02-28T07:28:21.521Z,2984.00
2019-02-28T07:29:21.502Z,3004.00
2019-02-28T07:30:21.466Z,3028.00
2019-02-28T07:31:24.443Z,3052.00
2019-02-28T07:32:23.893Z,3072.00
2019-02-28T07:33:26.022Z,3084.00
2019-02-28T07:34:23.882Z,3104.00
2019-02-28T07:35:21.409Z,3124.00
2019-02-28T07:36:21.462Z,3140.00
2019-02-28T07:37:21.390Z,3156.00
2019-02-28T07:38:21.365Z,3180.00
2019-02-28T07:39:21.425Z,3200.00
2019-02-28T07:40:21.369Z,3220.00
2019-02-28T07:41:26.205Z,3236.00
2019-02-28T07:42:21.339Z,3248.00
2019-02-28T07:43:22.326Z,3260.00
2019-02-28T07:44:22.297Z,3284.00
2019-02-28T07:45:21.313Z,3296.00
2019-02-28T07:46:21.299Z,3296.00
2019-02-28T07:47:21.339Z,3320.00
2019-02-28T07:48:26.814Z,3332.00
2019-02-28T07:49:22.255Z,3344.00
2019-02-28T07:50:21.315Z,3356.00
2019-02-28T07:51:22.685Z,3380.00
2019-02-28T07:52:21.228Z,3400.00
2019-02-28T07:53:21.207Z,3416.00
2019-02-28T07:54:21.207Z,3448.00
2019-02-28T07:55:21.195Z,3504.00
2019-02-28T07:56:21.190Z,3572.00
2019-02-28T07:57:22.488Z,3648.00
2019-02-28T07:58:21.162Z,3700.00
2019-02-28T07:59:21.165Z,3728.00
2019-02-28T08:00:21.141Z,3744.00
2019-02-28T08:01:21.121Z,3740.00
2019-02-28T08:02:21.107Z,3760.00
2019-02-28T08:03:21.121Z,3764.00
2019-02-28T08:04:21.093Z,3768.00
2019-02-28T08:05:21.089Z,3784.00
2019-02-28T08:06:21.084Z,3796.00
2019-02-28T08:07:21.089Z,3804.00
2019-02-28T08:08:23.376Z,3812.00
2019-02-28T08:09:21.133Z,3852.00
2019-02-28T08:10:21.030Z,3892.00
2019-02-28T08:11:21.014Z,3916.00
2019-02-28T08:12:21.069Z,3912.00
2019-02-28T08:13:20.993Z,3920.00
2019-02-28T08:14:20.979Z,3952.00
2019-02-28T08:15:22.527Z,4004.00
2019-02-28T08:16:20.964Z,4048.00
2019-02-28T08:17:20.939Z,4096.00
2019-02-28T08:18:20.942Z,4128.00
2019-02-28T08:19:22.753Z,4144.00
2019-02-28T08:20:20.918Z,4132.00
2019-02-28T08:21:20.906Z,4104.00
2019-02-28T08:22:24.240Z,4096.00
2019-02-28T08:23:20.886Z,4092.00
2019-02-28T08:24:20.870Z,4084.00
2019-02-28T08:25:20.853Z,4072.00
2019-02-28T08:26:25.237Z,4056.00
2019-02-28T08:27:20.862Z,4040.00
2019-02-28T08:28:20.820Z,4008.00
2019-02-28T08:29:20.836Z,3984.00
2019-02-28T08:30:20.837Z,3976.00
2019-02-28T08:31:20.802Z,3976.00
2019-02-28T08:32:20.820Z,3976.00
2019-02-28T08:33:20.771Z,3988.00
2019-02-28T08:34:23.871Z,3988.00
2019-02-28T08:35:20.757Z,4020.00
2019-02-28T08:36:20.791Z,4056.00
2019-02-28T08:37:22.429Z,4076.00
2019-02-28T08:38:20.717Z,4092.00
2019-02-28T08:39:20.713Z,4116.00
2019-02-28T08:40:20.698Z,4144.00
2019-02-28T08:41:22.497Z,4152.00
2019-02-28T08:42:20.668Z,4196.00
2019-02-28T08:43:27.221Z,4252.00
2019-02-28T08:44:23.818Z,4308.00
2019-02-28T08:45:32.521Z,4348.00
2019-02-28T08:46:21.642Z,4428.00
2019-02-28T08:47:21.138Z,4528.00
2019-02-28T08:48:20.620Z,4564.00
2019-02-28T08:49:20.596Z,4556.00
2019-02-28T08:50:23.339Z,4516.00
2019-02-28T08:51:21.484Z,4484.00
2019-02-28T08:52:20.560Z,4456.00
2019-02-28T08:53:20.561Z,4444.00
2019-02-28T08:54:26.092Z,4428.00
2019-02-28T08:55:28.269Z,4476.00
2019-02-28T08:56:21.522Z,4532.00
2019-02-28T08:57:21.913Z,4608.00
2019-02-28T08:58:20.492Z,4644.00
2019-02-28T08:59:22.532Z,4640.00
2019-02-28T09:00:20.465Z,4592.00
2019-02-28T09:01:20.458Z,4488.00
2019-02-28T09:02:20.459Z,4612.00
2019-02-28T09:03:20.452Z,4388.00
2019-02-28T09:04:20.435Z,4568.00
2019-02-28T09:05:25.673Z,4632.00
2019-02-28T09:06:20.418Z,4684.00
2019-02-28T09:07:20.400Z,4824.00
2019-02-28T09:08:22.405Z,4796.00
2019-02-28T09:09:20.378Z,4720.00
2019-02-28T09:10:20.396Z,4764.00
2019-02-28T09:11:21.105Z,4792.00
2019-02-28T09:12:20.342Z,4844.00
2019-02-28T09:13:20.330Z,4888.00
2019-02-28T09:14:20.332Z,4904.00
2019-02-28T09:15:20.334Z,4896.00
2019-02-28T09:16:20.314Z,4912.00
2019-02-28T09:17:20.285Z,4928.00
2019-02-28T09:18:20.276Z,4928.00
2019-02-28T09:19:20.265Z,5000.00
2019-02-28T09:20:20.258Z,4996.00
2019-02-28T09:21:20.254Z,4976.00
2019-02-28T09:22:20.258Z,5096.00
2019-02-28T09:23:20.266Z,5196.00
2019-02-28T09:24:20.210Z,5324.00
2019-02-28T09:25:22.051Z,5460.00
2019-02-28T09:26:20.184Z,5940.00
2019-02-28T09:27:20.184Z,6008.00
2019-02-28T09:28:20.902Z,6152.00
2019-02-28T09:29:21.307Z,6592.00
2019-02-28T09:30:20.139Z,6640.00
2019-02-28T09:31:20.128Z,6660.00
2019-02-28T09:32:20.131Z,6680.00
2019-02-28T09:33:23.348Z,6684.00
2019-02-28T09:34:20.098Z,6612.00
2019-02-28T09:35:20.086Z,6196.00
2019-02-28T09:36:20.884Z,6092.00
2019-02-28T09:37:20.059Z,6176.00
2019-02-28T09:38:20.135Z,6408.00
2019-02-28T09:39:20.324Z,6612.00
2019-02-28T09:40:20.030Z,7072.00
2019-02-28T09:41:20.029Z,7296.00
2019-02-28T09:42:20.031Z,7496.00
2019-02-28T09:43:19.996Z,7716.00
2019-02-28T09:44:20.011Z,7936.00
2019-02-28T09:45:19.986Z,8068.00
2019-02-28T09:46:20.045Z,8056.00
2019-02-28T09:47:19.946Z,8068.00
2019-02-28T09:48:19.941Z,8100.00
2019-02-28T09:49:19.992Z,8116.00
2019-02-28T09:50:22.559Z,8100.00
2019-02-28T09:51:20.906Z,8148.00
2019-02-28T09:52:19.893Z,8148.00
2019-02-28T09:53:19.899Z,7996.00
2019-02-28T09:54:21.436Z,7884.00
2019-02-28T09:55:20.961Z,7824.00
2019-02-28T09:56:19.854Z,7884.00
2019-02-28T09:57:19.920Z,7932.00
2019-02-28T09:58:19.825Z,7976.00
2019-02-28T09:59:19.854Z,8004.00
2019-02-28T10:00:20.121Z,8056.00
2019-02-28T10:01:21.223Z,8036.00
2019-02-28T10:02:19.800Z,8032.00
2019-02-28T10:03:19.784Z,8296.00
2019-02-28T10:04:19.773Z,8824.00
2019-02-28T10:05:19.756Z,9424.00
2019-02-28T10:06:19.745Z,10032.00
2019-02-28T10:07:19.736Z,10372.00
2019-02-28T10:08:21.707Z,10564.00
2019-02-28T10:09:19.720Z,10816.00
2019-02-28T10:10:20.853Z,11112.00
2019-02-28T10:11:21.740Z,11344.00
2019-02-28T10:12:19.830Z,11416.00
2019-02-28T10:13:19.687Z,11432.00
2019-02-28T10:14:19.663Z,11440.00
2019-02-28T10:15:19.647Z,11384.00
2019-02-28T10:16:19.634Z,11256.00
2019-02-28T10:17:19.682Z,11088.00
2019-02-28T10:18:19.617Z,10976.00
2019-02-28T10:19:19.595Z,10952.00
2019-02-28T10:20:19.584Z,10976.00
2019-02-28T10:21:19.579Z,11028.00
2019-02-28T10:22:19.586Z,11124.00
2019-02-28T10:23:21.433Z,11256.00
2019-02-28T10:24:19.703Z,11440.00
2019-02-28T10:25:19.536Z,11648.00
2019-02-28T10:26:19.521Z,11848.00
2019-02-28T10:27:19.502Z,11976.00
2019-02-28T10:28:19.509Z,12032.00
2019-02-28T10:29:19.509Z,12080.00
2019-02-28T10:30:30.529Z,12140.00
2019-02-28T10:31:22.912Z,12188.00
2019-02-28T10:32:20.451Z,12224.00
2019-02-28T10:33:19.438Z,12256.00
2019-02-28T10:34:19.426Z,12324.00
2019-02-28T10:35:19.420Z,12388.00
2019-02-28T10:36:19.408Z,12468.00
2019-02-28T10:37:22.849Z,12516.00
2019-02-28T10:38:19.472Z,12552.00
2019-02-28T10:39:19.388Z,12592.00
2019-02-28T10:40:19.361Z,12644.00
2019-02-28T10:41:19.363Z,12712.00
2019-02-28T10:42:19.345Z,12808.00
2019-02-28T10:43:19.329Z,12940.00
2019-02-28T10:44:19.316Z,13060.00
2019-02-28T10:45:19.305Z,13192.00
2019-02-28T10:46:20.263Z,13316.00
2019-02-28T10:47:19.393Z,13416.00
2019-02-28T10:48:19.389Z,13504.00
2019-02-28T10:49:21.119Z,13588.00
2019-02-28T10:50:19.386Z,13624.00
2019-02-28T10:51:19.247Z,13632.00
2019-02-28T10:52:19.266Z,13564.00
2019-02-28T10:53:19.224Z,13408.00
2019-02-28T10:54:19.234Z,13136.00
2019-02-28T10:55:22.201Z,12864.00
2019-02-28T10:56:19.188Z,12676.00
2019-02-28T11:06:59.310Z,12660.00
2019-02-28T11:07:56.672Z,12660.00
2019-02-28T11:08:57.410Z,12660.00
2019-02-28T11:09:58.741Z,12648.00
2019-02-28T11:10:56.635Z,12580.00
2019-02-28T11:11:56.590Z,12464.00
2019-02-28T11:12:57.106Z,12200.00
2019-02-28T11:13:57.602Z,11776.00
2019-02-28T11:14:56.605Z,11312.00
2019-02-28T11:15:56.579Z,10748.00
2019-02-28T11:16:59.375Z,10280.00
2019-02-28T11:17:56.513Z,9964.00
2019-02-28T11:18:56.542Z,9728.00
2019-02-28T11:19:56.519Z,9496.00
2019-02-28T11:20:58.097Z,9336.00
2019-02-28T11:21:56.504Z,9184.00
2019-02-28T11:22:56.452Z,8992.00
2019-02-28T11:23:56.441Z,8860.00
2019-02-28T11:24:57.319Z,8652.00
2019-02-28T11:25:56.466Z,8368.00
2019-02-28T11:26:56.436Z,8036.00
2019-02-28T11:27:56.421Z,7660.00
2019-02-28T11:28:56.425Z,7212.00
2019-02-28T11:29:56.433Z,6784.00
2019-02-28T11:30:56.380Z,6468.00
2019-02-28T11:31:56.350Z,6320.00
2019-02-28T11:32:56.345Z,6388.00
2019-02-28T11:33:56.356Z,6480.00
2019-02-28T11:34:56.329Z,6524.00
2019-02-28T11:35:58.826Z,6548.00
2019-02-28T11:36:56.299Z,6516.00
2019-02-28T11:37:56.293Z,6332.00
2019-02-28T11:38:56.306Z,6132.00
2019-02-28T11:39:56.267Z,6056.00
2019-02-28T11:40:57.498Z,5944.00
2019-02-28T11:41:56.339Z,5932.00
2019-02-28T11:42:56.243Z,5968.00
2019-02-28T11:43:56.277Z,6004.00
2019-02-28T11:44:56.418Z,5988.00
2019-02-28T11:45:56.514Z,5948.00
2019-02-28T11:46:56.198Z,5964.00
2019-02-28T11:47:56.202Z,6028.00
2019-02-28T11:48:56.214Z,6044.00
2019-02-28T11:49:56.141Z,6044.00
2019-02-28T11:50:56.171Z,6028.00
2019-02-28T11:51:56.159Z,6016.00
2019-02-28T11:53:04.856Z,6028.00
2019-02-28T11:54:25.709Z,6092.00
2019-02-28T11:55:27.096Z,6172.00
2019-02-28T11:56:28.778Z,6348.00
2019-02-28T11:57:25.606Z,6412.00
2019-02-28T11:58:25.616Z,6272.00
2019-02-28T11:59:25.589Z,6140.00
2019-02-28T12:00:26.285Z,6256.00
2019-02-28T12:01:25.557Z,6396.00
2019-02-28T12:02:25.548Z,6412.00
2019-02-28T12:03:25.514Z,6196.00
2019-02-28T12:04:25.502Z,5916.00
2019-02-28T12:05:25.560Z,5716.00
2019-02-28T12:06:26.299Z,5604.00
2019-02-28T12:07:25.552Z,5552.00
2019-02-28T12:08:25.500Z,5520.00
2019-02-28T12:09:25.455Z,5500.00
2019-02-28T12:10:26.927Z,5508.00
2019-02-28T12:11:25.430Z,5524.00
2019-02-28T12:12:25.499Z,5532.00
2019-02-28T12:13:25.430Z,5564.00
2019-02-28T12:14:26.463Z,5604.00
2019-02-28T12:15:25.381Z,5644.00
2019-02-28T12:16:25.393Z,5672.00
2019-02-28T12:17:25.540Z,5680.00
2019-02-28T12:18:26.202Z,5708.00
2019-02-28T12:19:25.379Z,5748.00
2019-02-28T12:20:26.569Z,5800.00
2019-02-28T12:21:25.314Z,5824.00
2019-02-28T12:22:25.311Z,5808.00
2019-02-28T12:23:25.401Z,5784.00
2019-02-28T12:24:25.319Z,5788.00
2019-02-28T12:25:25.346Z,5808.00
2019-02-28T12:26:25.298Z,5824.00
2019-02-28T12:27:27.397Z,5844.00
2019-02-28T12:28:25.238Z,5900.00
2019-02-28T12:29:25.242Z,5944.00
2019-02-28T12:30:25.979Z,5944.00
2019-02-28T12:31:25.205Z,5908.00
2019-02-28T12:32:25.212Z,5884.00
2019-02-28T12:33:25.184Z,5880.00
2019-02-28T12:34:27.964Z,5884.00
2019-02-28T12:35:25.306Z,5880.00
2019-02-28T12:36:25.159Z,5908.00
2019-02-28T12:37:25.587Z,5932.00
2019-02-28T12:38:28.283Z,5952.00
2019-02-28T12:39:25.125Z,5964.00
2019-02-28T12:40:25.194Z,5960.00
2019-02-28T12:41:26.034Z,5932.00
2019-02-28T12:42:25.476Z,5956.00
2019-02-28T12:43:25.162Z,5996.00
2019-02-28T12:44:25.075Z,6016.00
2019-02-28T12:45:25.169Z,6012.00
2019-02-28T12:46:25.045Z,6044.00
2019-02-28T12:47:25.048Z,6056.00
2019-02-28T12:48:27.022Z,6068.00
2019-02-28T12:49:27.052Z,6088.00
2019-02-28T12:50:25.263Z,6116.00
2019-02-28T12:51:24.994Z,6152.00
2019-02-28T12:52:25.007Z,6172.00
2019-02-28T12:53:26.128Z,6180.00